Time;durP1;ratioP1;P1;durP2;ratioP2;P2;SDS_P1;SDS_P2;PMS_P1;PMS_P2;Temp;Humidity;BMP_temperature;BMP_pressure;BME280_temperature;BME280_humidity;BME280_pressure;Samples;Min_cycle;Max_cycle;Signal;HPM_P1;HPM_P2
2022/08/30 00:03:03;;;;;;;;;;;512.50;2022.40;;;;;;5070212;28;19966;-55
2022/08/30 00:05:29;;;;;;;;;;;512.80;2380.80;;;;;;5070724;28;19916;-54
2022/08/30 00:07:55;;;;;;;;;;;512.80;2380.80;;;;;;5073891;28;20274;-53
2022/08/30 00:10:20;;;;;;;;;;;512.80;2380.80;;;;;;5074063;28;19909;-54
2022/08/30 00:12:47;;;;;;;;;;;512.80;2380.80;;;;;;5073929;28;19916;-54
2022/08/30 00:15:13;;;;;;;;;;;512.80;2380.80;;;;;;5073797;28;19961;-56
2022/08/30 00:17:39;;;;;;;;;;;512.70;2380.80;;;;;;5074053;28;19999;-55
2022/08/30 00:20:06;;;;;;;;;;;512.70;2380.80;;;;;;5073790;28;19908;-55
2022/08/30 00:22:32;;;;;;;;;;;512.70;2380.80;;;;;;5073920;28;19908;-56
2022/08/30 00:24:59;;;;;;;;;;;512.70;2380.80;;;;;;5073827;28;20050;-54
2022/08/30 00:27:28;;;;;;;;;;;512.70;2380.80;;;;;;5073579;28;20003;-55
2022/08/30 00:29:54;;;;;;;;;;;512.60;2380.80;;;;;;5073761;28;20316;-55
2022/08/30 00:32:20;;;;;;;;;;;512.60;2380.80;;;;;;5073544;28;19908;-55
2022/08/30 00:34:53;;;;;;;;;;;512.60;2380.80;;;;;;5073280;28;20286;-52
2022/08/30 00:37:19;;;;;;;;;;;512.60;2380.80;;;;;;5073589;28;19914;-54
2022/08/30 00:39:44;;;;;;;;;;;512.60;2380.80;;;;;;5073484;28;20006;-56
2022/08/30 00:42:11;;;;;;;;;;;512.60;2380.80;;;;;;5073686;28;19949;-55
2022/08/30 00:44:37;;;;;;;;;;;512.40;2380.80;;;;;;5073181;28;20320;-55
2022/08/30 00:47:03;;;;;;;;;;;512.20;2380.80;;;;;;5073182;28;19909;-56
2022/08/30 00:49:29;;;;;;;;;;;512.40;2380.80;;;;;;5073462;28;19962;-57
2022/08/30 00:51:55;;;;;;;;;;;512.40;2380.80;;;;;;5073157;28;19908;-55
2022/08/30 00:54:21;;;;;;;;;;;512.40;2380.80;;;;;;5073393;28;19974;-54
2022/08/30 00:56:47;;;;;;;;;;;512.40;2380.80;;;;;;5072897;28;20415;-55
2022/08/30 00:59:13;;;;;;;;;;;512.20;2380.80;;;;;;5073106;28;19909;-54
2022/08/30 01:01:39;;;;;;;;;;;512.00;2380.80;;;;;;5073119;28;19915;-54
2022/08/30 01:04:07;;;;;;;;;;;487.30;2380.80;;;;;;5072942;28;19920;-55
2022/08/30 01:06:33;;;;;;;;;;;487.10;2380.80;;;;;;5072809;28;19908;-55
2022/08/30 01:09:00;;;;;;;;;;;487.00;2380.80;;;;;;5073082;28;19912;-54
2022/08/30 01:11:25;;;;;;;;;;;486.90;2380.80;;;;;;5072558;28;19913;-55
2022/08/30 01:13:52;;;;;;;;;;;486.90;2380.80;;;;;;5072945;28;19930;-55
2022/08/30 01:16:18;;;;;;;;;;;486.90;2380.80;;;;;;5072791;28;19987;-55
2022/08/30 01:18:43;;;;;;;;;;;487.00;2380.80;;;;;;5072668;28;19944;-55
2022/08/30 01:21:12;;;;;;;;;;;487.00;2380.80;;;;;;5072741;28;19916;-54
2022/08/30 01:23:40;;;;;;;;;;;487.00;2380.80;;;;;;5072569;28;20252;-56
2022/08/30 01:26:06;;;;;;;;;;;487.00;2380.80;;;;;;5072462;28;19922;-56
2022/08/30 01:28:32;;;;;;;;;;;486.80;2380.80;;;;;;5072619;28;20007;-57
2022/08/30 01:30:58;;;;;;;;;;;486.90;2380.80;;;;;;5072508;28;19908;-56
2022/08/30 01:33:24;;;;;;;;;;;487.00;2380.80;;;;;;5072261;28;19919;-56
2022/08/30 01:35:52;;;;;;;;;;;486.90;2380.80;;;;;;5072501;28;19957;-54
2022/08/30 01:38:19;;;;;;;;;;;486.90;2380.80;;;;;;5072317;28;19908;-56
2022/08/30 01:40:45;;;;;;;;;;;487.00;2380.80;;;;;;5071923;28;20278;-56
2022/08/30 01:43:12;;;;;;;;;;;486.90;2380.80;;;;;;5072204;28;19923;-57
2022/08/30 01:45:38;;;;;;;;;;;487.00;2380.80;;;;;;5072258;28;20011;-55
2022/08/30 01:48:03;;;;;;;;;;;487.00;2380.80;;;;;;5071973;28;19946;-55
2022/08/30 01:50:29;;;;;;;;;;;487.00;2380.80;;;;;;5072393;28;19909;-55
2022/08/30 01:52:55;;;;;;;;;;;487.00;2380.80;;;;;;5071938;28;19952;-56
2022/08/30 01:55:20;;;;;;;;;;;486.80;2380.80;;;;;;5072011;28;19908;-55
2022/08/30 01:57:46;;;;;;;;;;;486.80;2380.80;;;;;;5071998;28;19915;-55
2022/08/30 02:00:12;;;;;;;;;;;486.70;2380.80;;;;;;5072101;28;20391;-56
2022/08/30 02:02:37;;;;;;;;;;;486.80;2380.80;;;;;;5071526;28;20324;-55
2022/08/30 02:05:03;;;;;;;;;;;486.80;2380.80;;;;;;5071681;28;19917;-56
2022/08/30 02:07:29;;;;;;;;;;;486.90;2380.80;;;;;;5071940;28;19909;-54
2022/08/30 02:09:55;;;;;;;;;;;487.00;2380.80;;;;;;5071650;28;20342;-54
2022/08/30 02:12:21;;;;;;;;;;;487.10;2380.80;;;;;;5071663;28;19909;-55
2022/08/30 02:14:46;;;;;;;;;;;487.10;2380.80;;;;;;5071778;28;19909;-55
2022/08/30 02:17:13;;;;;;;;;;;487.00;2380.80;;;;;;5071422;28;19912;-55
2022/08/30 02:19:39;;;;;;;;;;;487.00;2380.80;;;;;;5071496;28;19969;-55
2022/08/30 02:22:05;;;;;;;;;;;487.10;2380.80;;;;;;5071532;28;20270;-55
2022/08/30 02:24:31;;;;;;;;;;;487.10;2380.80;;;;;;5071481;28;19917;-57
2022/08/30 02:26:56;;;;;;;;;;;487.10;2380.80;;;;;;5071065;28;19909;-55
2022/08/30 02:29:23;;;;;;;;;;;487.20;2380.80;;;;;;5070731;28;19912;-56
2022/08/30 02:31:48;;;;;;;;;;;487.30;2380.80;;;;;;5071419;28;20023;-55
2022/08/30 02:34:14;;;;;;;;;;;487.30;2380.80;;;;;;5071178;28;20371;-55
2022/08/30 02:36:40;;;;;;;;;;;512.00;2380.80;;;;;;5071303;28;19913;-55
2022/08/30 02:39:06;;;;;;;;;;;512.00;2380.80;;;;;;5071167;28;19912;-55
2022/08/30 02:41:32;;;;;;;;;;;512.10;2380.80;;;;;;5071021;28;19915;-57
2022/08/30 02:43:59;;;;;;;;;;;512.10;2380.80;;;;;;5071125;28;19916;-56
2022/08/30 02:46:25;;;;;;;;;;;512.00;2380.80;;;;;;5071035;28;20358;-54
2022/08/30 02:48:50;;;;;;;;;;;512.00;2380.80;;;;;;5071230;28;19915;-55
2022/08/30 02:51:16;;;;;;;;;;;512.00;2380.80;;;;;;5071090;28;19919;-55
2022/08/30 02:53:42;;;;;;;;;;;512.00;2380.80;;;;;;5071084;28;19912;-55
2022/08/30 02:56:09;;;;;;;;;;;512.00;2380.80;;;;;;5070939;28;19926;-55
2022/08/30 02:58:34;;;;;;;;;;;512.10;2380.80;;;;;;5070827;28;19954;-57
2022/08/30 03:01:00;;;;;;;;;;;512.00;2380.80;;;;;;5071099;28;20301;-56
2022/08/30 03:03:26;;;;;;;;;;;487.30;2380.80;;;;;;5070530;28;19931;-55
2022/08/30 03:05:52;;;;;;;;;;;512.00;2380.80;;;;;;5070915;28;20362;-57
2022/08/30 03:08:17;;;;;;;;;;;512.00;2380.80;;;;;;5071080;28;19909;-55
2022/08/30 03:10:44;;;;;;;;;;;512.00;2380.80;;;;;;5070749;28;19944;-55
2022/08/30 03:13:10;;;;;;;;;;;512.10;2380.80;;;;;;5071015;28;19908;-56
2022/08/30 03:15:36;;;;;;;;;;;512.10;2380.80;;;;;;5070950;28;19920;-55
2022/08/30 03:18:02;;;;;;;;;;;512.20;2380.80;;;;;;5070640;28;19909;-55
2022/08/30 03:20:28;;;;;;;;;;;512.20;2380.80;;;;;;5071028;28;20401;-55
2022/08/30 03:22:54;;;;;;;;;;;512.20;2380.80;;;;;;5070920;28;20377;-55
2022/08/30 03:25:20;;;;;;;;;;;512.20;2380.80;;;;;;5070869;28;19908;-55
2022/08/30 03:27:46;;;;;;;;;;;512.10;2380.80;;;;;;5070505;28;20408;-55
2022/08/30 03:30:12;;;;;;;;;;;512.10;2380.80;;;;;;5071079;28;19913;-54
2022/08/30 03:32:38;;;;;;;;;;;512.10;2380.80;;;;;;5070758;28;19958;-54
2022/08/30 03:35:04;;;;;;;;;;;512.10;2380.80;;;;;;5070664;28;19913;-55
2022/08/30 03:37:29;;;;;;;;;;;512.10;2380.80;;;;;;5070700;28;20003;-54
2022/08/30 03:39:55;;;;;;;;;;;512.20;2380.80;;;;;;5071538;28;19916;-55
2022/08/30 03:42:21;;;;;;;;;;;512.20;2380.80;;;;;;5074749;28;20396;-55
2022/08/30 03:44:46;;;;;;;;;;;512.10;2380.80;;;;;;5074624;28;20402;-56
2022/08/30 03:47:12;;;;;;;;;;;512.10;2380.80;;;;;;5074526;28;19909;-55
2022/08/30 03:49:37;;;;;;;;;;;512.10;2380.80;;;;;;5074520;28;19913;-55
2022/08/30 03:52:03;;;;;;;;;;;512.10;2380.80;;;;;;5074383;28;19995;-57
2022/08/30 03:54:29;;;;;;;;;;;512.10;2380.80;;;;;;5074427;28;20323;-55
2022/08/30 03:56:55;;;;;;;;;;;487.30;2380.80;;;;;;5074171;28;19908;-55
2022/08/30 03:59:20;;;;;;;;;;;487.20;2124.80;;;;;;5074239;28;19908;-57
2022/08/30 04:01:46;;;;;;;;;;;487.30;2380.80;;;;;;5073846;28;19920;-54
2022/08/30 04:04:12;;;;;;;;;;;512.00;2380.80;;;;;;5074447;28;19921;-55
2022/08/30 04:06:38;;;;;;;;;;;512.00;2380.80;;;;;;5074593;28;19915;-55
2022/08/30 04:09:04;;;;;;;;;;;512.00;2380.80;;;;;;5074027;28;19909;-55
2022/08/30 04:11:30;;;;;;;;;;;512.00;2380.80;;;;;;5074139;28;19908;-55
2022/08/30 04:13:55;;;;;;;;;;;487.20;2380.80;;;;;;5073785;28;20382;-55
2022/08/30 04:16:21;;;;;;;;;;;487.30;2380.80;;;;;;5074276;28;20270;-55
2022/08/30 04:18:47;;;;;;;;;;;487.30;2380.80;;;;;;5073763;28;20278;-55
2022/08/30 04:21:13;;;;;;;;;;;487.30;2380.80;;;;;;5073640;28;19947;-55
2022/08/30 04:23:38;;;;;;;;;;;512.00;2380.80;;;;;;5073885;28;19916;-55
2022/08/30 04:26:04;;;;;;;;;;;512.10;2380.80;;;;;;5073737;28;19913;-55
2022/08/30 04:28:29;;;;;;;;;;;512.10;2380.80;;;;;;5073836;28;19908;-56
2022/08/30 04:30:55;;;;;;;;;;;512.00;2380.80;;;;;;5073668;28;20282;-57
2022/08/30 04:33:21;;;;;;;;;;;512.10;2380.80;;;;;;5073732;28;19927;-57
2022/08/30 04:35:47;;;;;;;;;;;512.20;2380.80;;;;;;5073625;28;19916;-55
2022/08/30 04:38:13;;;;;;;;;;;512.30;2380.80;;;;;;5073635;28;19912;-56
2022/08/30 04:40:43;;;;;;;;;;;512.40;2380.80;;;;;;5073699;28;19915;-55
2022/08/30 04:43:10;;;;;;;;;;;512.40;2380.80;;;;;;5073394;28;19917;-55
2022/08/30 04:45:37;;;;;;;;;;;512.40;2380.80;;;;;;5073460;28;19920;-58
2022/08/30 04:48:02;;;;;;;;;;;512.40;2380.80;;;;;;5067253;28;19916;-56
2022/08/30 04:50:28;;;;;;;;;;;512.40;2380.80;;;;;;5073427;28;19912;-56
2022/08/30 04:52:54;;;;;;;;;;;512.40;2380.80;;;;;;5072667;28;19955;-60
2022/08/30 04:55:20;;;;;;;;;;;512.40;2380.80;;;;;;5073555;28;19915;-59
2022/08/30 04:57:46;;;;;;;;;;;512.30;2380.80;;;;;;5073062;28;20275;-59
2022/08/30 05:00:12;;;;;;;;;;;512.30;2380.80;;;;;;5073311;28;19931;-54
2022/08/30 05:02:38;;;;;;;;;;;512.20;2380.80;;;;;;5072937;28;19920;-59
2022/08/30 05:07:48;;;;;;;;;;;512.20;2380.80;;;;;;5073570;28;19915;-56
2022/08/30 05:10:13;;;;;;;;;;;512.30;2380.80;;;;;;5072929;28;19908;-59
2022/08/30 05:12:39;;;;;;;;;;;512.30;2380.80;;;;;;5072940;28;19969;-56
2022/08/30 05:15:05;;;;;;;;;;;512.40;2380.80;;;;;;5072682;28;20247;-57
2022/08/30 05:17:31;;;;;;;;;;;512.50;2380.80;;;;;;5073239;28;19908;-55
2022/08/30 05:19:56;;;;;;;;;;;512.60;2380.80;;;;;;5072554;28;19997;-54
2022/08/30 05:22:22;;;;;;;;;;;512.60;2380.80;;;;;;5072902;28;19908;-54
2022/08/30 05:24:48;;;;;;;;;;;512.60;2380.80;;;;;;5072699;28;19923;-59
2022/08/30 05:27:14;;;;;;;;;;;512.50;2380.80;;;;;;5072480;28;19909;-55
2022/08/30 05:29:40;;;;;;;;;;;512.60;2380.80;;;;;;5072637;28;19909;-56
2022/08/30 05:32:06;;;;;;;;;;;512.70;2380.80;;;;;;5072542;28;19923;-59
2022/08/30 05:34:33;;;;;;;;;;;512.80;2380.80;;;;;;5072522;28;19948;-59
2022/08/30 05:36:59;;;;;;;;;;;512.90;2380.80;;;;;;5072641;28;19930;-57
2022/08/30 05:39:25;;;;;;;;;;;512.90;2380.80;;;;;;5072403;28;20393;-54
2022/08/30 05:41:54;;;;;;;;;;;537.60;2406.40;;;;;;5072305;28;19914;-59
2022/08/30 05:44:20;;;;;;;;;;;537.70;2406.40;;;;;;5071086;28;19916;-59
2022/08/30 05:46:46;;;;;;;;;;;537.80;2406.40;;;;;;5072182;28;20380;-56
2022/08/30 05:49:12;;;;;;;;;;;537.80;2406.40;;;;;;5072461;28;19908;-55
2022/08/30 05:51:37;;;;;;;;;;;537.90;2406.40;;;;;;5072186;28;20417;-54
2022/08/30 05:54:04;;;;;;;;;;;537.80;2406.40;;;;;;5071868;28;19912;-55
2022/08/30 05:56:31;;;;;;;;;;;537.70;2406.40;;;;;;5072117;28;19908;-59
2022/08/30 05:58:57;;;;;;;;;;;537.70;2406.40;;;;;;5071851;28;19916;-54
2022/08/30 06:01:24;;;;;;;;;;;537.80;2406.40;;;;;;5071694;28;19908;-56
2022/08/30 06:03:50;;;;;;;;;;;537.90;2406.40;;;;;;5070715;28;19925;-54
2022/08/30 06:06:16;;;;;;;;;;;538.10;2406.40;;;;;;5071761;28;19936;-55
2022/08/30 06:08:44;;;;;;;;;;;538.30;2406.40;;;;;;5071982;28;19952;-59
2022/08/30 06:11:11;;;;;;;;;;;538.30;2406.40;;;;;;5071841;28;19909;-55
2022/08/30 06:13:36;;;;;;;;;;;538.50;2406.40;;;;;;5071500;28;19934;-59
2022/08/30 06:16:02;;;;;;;;;;;538.50;2406.40;;;;;;5071737;28;20441;-59
2022/08/30 06:18:27;;;;;;;;;;;538.50;2406.40;;;;;;5071283;28;19931;-55
2022/08/30 06:20:53;;;;;;;;;;;563.50;2432.00;;;;;;5071263;28;19943;-55
2022/08/30 06:23:18;;;;;;;;;;;563.60;2432.00;;;;;;5071423;28;19969;-55
2022/08/30 06:25:44;;;;;;;;;;;563.80;2432.00;;;;;;5071365;28;19909;-55
2022/08/30 06:28:10;;;;;;;;;;;564.00;2432.00;;;;;;5071437;28;19908;-55
2022/08/30 06:30:38;;;;;;;;;;;588.80;2432.00;;;;;;5071332;28;19916;-55
2022/08/30 06:33:04;;;;;;;;;;;588.90;2432.00;;;;;;5071186;28;19919;-54
2022/08/30 06:35:31;;;;;;;;;;;589.20;2432.00;;;;;;5071205;28;20274;-55
2022/08/30 06:37:57;;;;;;;;;;;589.50;2432.00;;;;;;5070923;28;19931;-55
2022/08/30 06:40:22;;;;;;;;;;;589.50;2432.00;;;;;;5071479;28;20439;-54
2022/08/30 06:42:48;;;;;;;;;;;589.20;2432.00;;;;;;5071205;28;19970;-55
2022/08/30 06:45:15;;;;;;;;;;;589.40;2432.00;;;;;;5071150;28;20003;-55
2022/08/30 06:47:40;;;;;;;;;;;589.50;2432.00;;;;;;5071352;28;19951;-55
2022/08/30 06:50:06;;;;;;;;;;;589.50;2432.00;;;;;;5071141;28;19919;-55
2022/08/30 06:52:32;;;;;;;;;;;589.40;2432.00;;;;;;5071241;28;20247;-59
2022/08/30 06:54:57;;;;;;;;;;;589.50;2432.00;;;;;;5070696;28;19908;-58
2022/08/30 06:57:24;;;;;;;;;;;589.60;2432.00;;;;;;5070853;28;19908;-58
2022/08/30 06:59:54;;;;;;;;;;;589.60;2432.00;;;;;;5071034;28;19908;-60
2022/08/30 07:02:19;;;;;;;;;;;589.60;2432.00;;;;;;5071081;28;19943;-55
2022/08/30 07:04:45;;;;;;;;;;;589.70;2432.00;;;;;;5070842;28;20358;-60
2022/08/30 07:07:10;;;;;;;;;;;589.60;2432.00;;;;;;5071162;28;19977;-55
2022/08/30 07:09:41;;;;;;;;;;;589.70;2432.00;;;;;;5070851;28;20315;-55
2022/08/30 07:12:08;;;;;;;;;;;589.60;2432.00;;;;;;5071025;28;20007;-59
2022/08/30 07:14:34;;;;;;;;;;;589.40;2432.00;;;;;;5050831;28;19934;-60
2022/08/30 07:16:59;;;;;;;;;;;589.30;2432.00;;;;;;5050986;28;20351;-59
2022/08/30 07:19:25;;;;;;;;;;;588.90;2432.00;;;;;;5050828;28;19909;-57
2022/08/30 07:21:50;;;;;;;;;;;564.10;2432.00;;;;;;5051051;28;19909;-60
2022/08/30 07:24:17;;;;;;;;;;;588.80;2432.00;;;;;;5050542;28;19921;-56
2022/08/30 07:26:48;;;;;;;;;;;588.90;2432.00;;;;;;5049282;28;19912;-56
2022/08/30 07:29:14;;;;;;;;;;;589.00;2432.00;;;;;;5048217;28;19913;-58
2022/08/30 07:31:40;;;;;;;;;;;589.10;2432.00;;;;;;5048538;28;20425;-55
2022/08/30 07:34:06;;;;;;;;;;;589.10;2432.00;;;;;;5048558;28;19970;-55
2022/08/30 07:36:32;;;;;;;;;;;589.20;2432.00;;;;;;5048827;28;19999;-60
2022/08/30 07:38:58;;;;;;;;;;;589.20;2432.00;;;;;;5048832;28;20358;-56
2022/08/30 07:41:25;;;;;;;;;;;589.30;2432.00;;;;;;5048054;28;19915;-58
2022/08/30 07:43:51;;;;;;;;;;;589.20;2432.00;;;;;;5048392;28;20015;-56
2022/08/30 07:46:17;;;;;;;;;;;589.10;2432.00;;;;;;5048443;28;19955;-58
2022/08/30 07:48:42;;;;;;;;;;;589.30;2432.00;;;;;;5048381;28;19913;-58
2022/08/30 07:51:10;;;;;;;;;;;589.20;2432.00;;;;;;5048809;28;20373;-59
2022/08/30 07:53:35;;;;;;;;;;;589.20;2432.00;;;;;;5048130;28;19909;-55
2022/08/30 07:56:01;;;;;;;;;;;589.30;2432.00;;;;;;5048459;28;20294;-60
2022/08/30 07:58:26;;;;;;;;;;;589.30;2432.00;;;;;;5048311;28;19913;-57
2022/08/30 08:00:52;;;;;;;;;;;589.40;2432.00;;;;;;5048204;28;19909;-57
2022/08/30 08:03:18;;;;;;;;;;;589.50;2432.00;;;;;;5048169;28;19968;-60
2022/08/30 08:05:44;;;;;;;;;;;589.50;2432.00;;;;;;5048008;28;20283;-55
2022/08/30 08:08:10;;;;;;;;;;;589.60;2432.00;;;;;;5048202;28;19913;-56
2022/08/30 08:10:37;;;;;;;;;;;589.60;2432.00;;;;;;5048330;28;19999;-55
2022/08/30 08:13:03;;;;;;;;;;;614.40;2432.00;;;;;;5048217;28;19917;-55
2022/08/30 08:15:28;;;;;;;;;;;614.40;2432.00;;;;;;5048310;28;19909;-54
2022/08/30 08:17:54;;;;;;;;;;;614.40;2432.00;;;;;;5048435;28;19919;-55
2022/08/30 08:20:19;;;;;;;;;;;614.50;2432.00;;;;;;5048055;28;19962;-54
2022/08/30 08:22:45;;;;;;;;;;;614.50;2432.00;;;;;;5048001;28;20270;-55
2022/08/30 08:25:11;;;;;;;;;;;614.60;2432.00;;;;;;5048251;28;19919;-55
2022/08/30 08:27:36;;;;;;;;;;;614.60;2432.00;;;;;;5049762;28;19909;-55
2022/08/30 08:30:03;;;;;;;;;;;614.70;2432.00;;;;;;5051802;28;19909;-55
2022/08/30 08:32:28;;;;;;;;;;;614.80;2432.00;;;;;;5051218;28;19913;-56
2022/08/30 08:34:54;;;;;;;;;;;614.90;2432.00;;;;;;5051562;28;19917;-58
2022/08/30 08:37:20;;;;;;;;;;;615.10;2432.00;;;;;;5051812;28;19909;-55
2022/08/30 08:39:46;;;;;;;;;;;615.00;2432.00;;;;;;5051490;28;20089;-60
2022/08/30 08:42:21;;;;;;;;;;;615.20;2432.00;;;;;;5051565;28;20431;-55
2022/08/30 08:45:10;;;;;;;;;;;614.80;2432.00;;;;;;5051191;28;19928;-55
2022/08/30 08:47:47;;;;;;;;;;;615.20;2432.00;;;;;;5051208;28;19913;-55
2022/08/30 08:50:16;;;;;;;;;;;640.00;2432.00;;;;;;5051266;28;19909;-55
2022/08/30 08:55:51;;;;;;;;;;;640.10;2432.00;;;;;;5053631;28;20430;-59
2022/08/30 08:58:28;;;;;;;;;;;640.00;2432.00;;;;;;5052980;28;19913;-55
2022/08/30 09:00:57;;;;;;;;;;;640.10;2432.00;;;;;;5053049;28;19909;-55
2022/08/30 09:03:25;;;;;;;;;;;640.10;2432.00;;;;;;5052655;28;19921;-55
2022/08/30 09:05:52;;;;;;;;;;;640.20;2432.00;;;;;;5052888;28;19920;-58
2022/08/30 09:08:18;;;;;;;;;;;640.40;2432.00;;;;;;5053181;28;20275;-58
2022/08/30 09:10:51;;;;;;;;;;;640.40;2432.00;;;;;;5052837;28;19909;-58
2022/08/30 09:13:17;;;;;;;;;;;640.50;2432.00;;;;;;5052689;28;19952;-56
2022/08/30 09:22:31;;;;;;;;;;;640.30;2432.00;;;;;;5056532;22;20376;-54
2022/08/30 09:25:02;;;;;;;;;;;640.20;2432.00;;;;;;5032693;28;19921;-54
2022/08/30 09:27:35;;;;;;;;;;;640.10;2432.00;;;;;;5032704;28;20326;-55
2022/08/30 09:30:09;;;;;;;;;;;640.20;2432.00;;;;;;5032681;28;19913;-54
2022/08/30 09:32:34;;;;;;;;;;;640.20;2432.00;;;;;;5032580;28;19909;-56
2022/08/30 09:35:00;;;;;;;;;;;640.00;2432.00;;;;;;5032722;28;19913;-53
2022/08/30 09:37:34;;;;;;;;;;;640.00;2432.00;;;;;;5032483;28;20358;-55
2022/08/30 09:40:01;;;;;;;;;;;615.30;2432.00;;;;;;5032737;28;19913;-55
2022/08/30 09:42:27;;;;;;;;;;;615.30;2432.00;;;;;;5032405;28;20363;-56
2022/08/30 09:45:09;;;;;;;;;;;615.20;2432.00;;;;;;5032300;28;19924;-53
2022/08/30 09:47:35;;;;;;;;;;;615.10;2432.00;;;;;;5032389;28;19909;-54
2022/08/30 09:50:04;;;;;;;;;;;615.10;2432.00;;;;;;5032303;28;19933;-54
2022/08/30 09:52:33;;;;;;;;;;;615.20;2432.00;;;;;;5032152;28;19917;-53
2022/08/30 09:55:06;;;;;;;;;;;615.30;2432.00;;;;;;5032258;28;19919;-53
2022/08/30 09:57:31;;;;;;;;;;;615.30;2432.00;;;;;;5032133;28;20465;-53
2022/08/30 10:00:06;;;;;;;;;;;615.20;2432.00;;;;;;5032377;28;20015;-53
2022/08/30 10:02:35;;;;;;;;;;;615.20;2432.00;;;;;;5032040;28;19909;-55
2022/08/30 10:05:12;;;;;;;;;;;615.30;2432.00;;;;;;5032080;28;20286;-54
2022/08/30 10:07:57;;;;;;;;;;;615.30;2432.00;;;;;;5032011;28;19996;-54
2022/08/30 10:10:37;;;;;;;;;;;615.30;2432.00;;;;;;5031712;28;20362;-54
2022/08/30 10:13:03;;;;;;;;;;;615.30;2432.00;;;;;;5031676;28;19909;-53
2022/08/30 10:15:41;;;;;;;;;;;640.00;2432.00;;;;;;5031806;28;19916;-53
2022/08/30 10:18:12;;;;;;;;;;;640.10;2432.00;;;;;;5031896;28;19913;-55
2022/08/30 10:20:51;;;;;;;;;;;640.10;2432.00;;;;;;5031550;28;19955;-52
2022/08/30 10:23:20;;;;;;;;;;;640.20;2432.00;;;;;;5031577;28;19928;-53
2022/08/30 10:25:50;;;;;;;;;;;640.50;2432.00;;;;;;5031530;28;19914;-53
2022/08/30 10:28:21;;;;;;;;;;;640.60;2432.00;;;;;;5031558;28;19967;-53
2022/08/30 10:30:58;;;;;;;;;;;640.70;2432.00;;;;;;5031469;28;19917;-52
2022/08/30 10:33:25;;;;;;;;;;;640.60;2432.00;;;;;;5031545;28;20279;-54
2022/08/30 10:35:56;;;;;;;;;;;640.90;2432.00;;;;;;5031587;28;19966;-52
2022/08/30 10:38:38;;;;;;;;;;;665.60;2432.00;;;;;;5031522;28;20027;-53
2022/08/30 10:41:13;;;;;;;;;;;;;;;;;;5031501;28;20250;-53
2022/08/30 10:43:59;;;;;;;;;;;665.60;2432.00;;;;;;5031388;28;19917;-54
2022/08/30 10:46:43;;;;;;;;;;;665.90;2432.00;;;;;;5017268;28;19956;-53
2022/08/30 10:49:12;;;;;;;;;;;666.10;2432.00;;;;;;5030994;28;19955;-53
2022/08/30 10:51:45;;;;;;;;;;;666.20;2432.00;;;;;;5031200;28;19917;-53
2022/08/30 10:54:19;;;;;;;;;;;666.20;2432.00;;;;;;5031464;28;20000;-53
2022/08/30 10:56:48;;;;;;;;;;;666.20;2432.00;;;;;;5031207;28;19917;-53
2022/08/30 10:59:15;;;;;;;;;;;666.40;2432.00;;;;;;5031015;28;19909;-53
2022/08/30 11:01:48;;;;;;;;;;;666.50;2432.00;;;;;;5031125;28;19913;-53
2022/08/30 11:04:20;;;;;;;;;;;691.20;2432.00;;;;;;5030896;28;19921;-54
2022/08/30 11:06:48;;;;;;;;;;;691.40;2432.00;;;;;;5030967;28;20385;-56
2022/08/30 11:09:17;;;;;;;;;;;691.40;2432.00;;;;;;5030934;28;19909;-53
2022/08/30 11:12:01;;;;;;;;;;;691.70;2432.00;;;;;;5031002;28;19913;-53
2022/08/30 11:14:27;;;;;;;;;;;;;;;;;;5030789;28;20415;-53
2022/08/30 11:16:55;;;;;;;;;;;691.70;2432.00;;;;;;5030668;28;20043;-54
2022/08/30 11:19:20;;;;;;;;;;;692.00;2432.00;;;;;;5030931;28;19920;-55
2022/08/30 11:21:46;;;;;;;;;;;692.10;2432.00;;;;;;5030604;28;19921;-55
2022/08/30 11:24:15;;;;;;;;;;;716.80;2432.00;;;;;;5030700;28;19921;-54
2022/08/30 11:26:43;;;;;;;;;;;716.80;2432.00;;;;;;5030905;28;19935;-53
2022/08/30 11:29:26;;;;;;;;;;;716.90;2432.00;;;;;;5030893;28;19910;-54
2022/08/30 11:31:52;;;;;;;;;;;716.80;2432.00;;;;;;5013265;28;19917;-55
2022/08/30 11:34:37;;;;;;;;;;;717.00;2432.00;;;;;;5030887;28;20000;-55
2022/08/30 11:37:03;;;;;;;;;;;717.10;2432.00;;;;;;5030567;28;19909;-55
2022/08/30 11:39:50;;;;;;;;;;;717.10;2432.00;;;;;;5030833;28;19916;-55
2022/08/30 11:42:28;;;;;;;;;;;717.10;2432.00;;;;;;5030602;28;19931;-55
2022/08/30 11:45:13;;;;;;;;;;;716.90;2432.00;;;;;;5030572;28;20378;-54
2022/08/30 11:47:46;;;;;;;;;;;717.00;2432.00;;;;;;5030714;28;19909;-54
2022/08/30 11:50:16;;;;;;;;;;;716.90;2432.00;;;;;;5030534;28;19909;-55
2022/08/30 11:52:47;;;;;;;;;;;716.80;2432.00;;;;;;5030496;28;19965;-55
2022/08/30 11:55:27;;;;;;;;;;;716.90;2432.00;;;;;;5030420;28;19988;-54
2022/08/30 11:57:58;;;;;;;;;;;692.10;2432.00;;;;;;5030392;28;19916;-55
2022/08/30 12:00:30;;;;;;;;;;;692.00;2432.00;;;;;;5030309;28;19916;-55
2022/08/30 12:03:06;;;;;;;;;;;716.80;2432.00;;;;;;5033048;28;19913;-54
2022/08/30 12:05:44;;;;;;;;;;;717.10;2432.00;;;;;;5034092;28;20354;-55
2022/08/30 12:08:19;;;;;;;;;;;717.10;2432.00;;;;;;5034223;28;20358;-54
2022/08/30 12:10:48;;;;;;;;;;;717.30;2432.00;;;;;;5034181;28;20006;-54
2022/08/30 12:13:32;;;;;;;;;;;717.40;2432.00;;;;;;5033909;28;19909;-55
2022/08/30 12:16:00;;;;;;;;;;;717.50;2432.00;;;;;;5034174;28;19938;-54
2022/08/30 12:18:30;;;;;;;;;;;717.60;2432.00;;;;;;5033898;28;19909;-54
2022/08/30 12:21:00;;;;;;;;;;;717.30;2432.00;;;;;;5033727;28;19918;-54
2022/08/30 12:23:25;;;;;;;;;;;717.30;2432.00;;;;;;5033749;28;19928;-54
2022/08/30 12:26:08;;;;;;;;;;;717.50;2432.00;;;;;;5033988;28;19909;-55
2022/08/30 12:28:33;;;;;;;;;;;717.40;2432.00;;;;;;5033553;28;19964;-55
2022/08/30 12:31:05;;;;;;;;;;;716.90;2432.00;;;;;;5034064;28;20014;-55
2022/08/30 12:33:40;;;;;;;;;;;717.20;2432.00;;;;;;5033766;28;20000;-55
2022/08/30 12:36:05;;;;;;;;;;;717.10;2432.00;;;;;;5033625;28;19909;-54
2022/08/30 12:38:31;;;;;;;;;;;717.30;2432.00;;;;;;5034002;28;19909;-54
2022/08/30 12:40:59;;;;;;;;;;;717.40;2432.00;;;;;;5033454;28;19981;-54
2022/08/30 12:43:27;;;;;;;;;;;717.30;2432.00;;;;;;5033225;28;20394;-54
2022/08/30 12:45:54;;;;;;;;;;;717.50;2432.00;;;;;;5033314;28;19916;-54
2022/08/30 12:48:20;;;;;;;;;;;717.40;2432.00;;;;;;5033609;28;19943;-54
2022/08/30 12:50:50;;;;;;;;;;;717.20;2432.00;;;;;;5031993;28;19917;-53
2022/08/30 12:53:22;;;;;;;;;;;717.20;2432.00;;;;;;5033248;28;19963;-54
2022/08/30 12:55:50;;;;;;;;;;;717.30;2432.00;;;;;;5033688;28;19909;-55
2022/08/30 12:58:15;;;;;;;;;;;717.20;2432.00;;;;;;5033268;28;19915;-54
2022/08/30 13:00:42;;;;;;;;;;;717.30;2432.00;;;;;;5033350;28;20392;-54
2022/08/30 13:03:27;;;;;;;;;;;717.20;2432.00;;;;;;5033311;28;19909;-54
2022/08/30 13:05:53;;;;;;;;;;;717.20;2432.00;;;;;;5033252;28;20260;-54
2022/08/30 13:08:24;;;;;;;;;;;717.40;2432.00;;;;;;5033248;28;19909;-54
2022/08/30 13:10:54;;;;;;;;;;;717.40;2432.00;;;;;;5033113;28;19967;-54
2022/08/30 13:13:32;;;;;;;;;;;717.50;2432.00;;;;;;5032687;28;19909;-54
2022/08/30 13:16:05;;;;;;;;;;;717.60;2432.00;;;;;;5033064;28;19979;-53
2022/08/30 13:18:31;;;;;;;;;;;717.60;2432.00;;;;;;5033008;28;19909;-53
2022/08/30 13:21:15;;;;;;;;;;;717.70;2432.00;;;;;;5032523;28;19924;-54
2022/08/30 13:23:41;;;;;;;;;;;742.40;2432.00;;;;;;5032691;28;20383;-54
2022/08/30 13:26:07;;;;;;;;;;;;;;;;;;5032682;28;19961;-55
2022/08/30 13:28:32;;;;;;;;;;;;;;;;;;5032558;28;19955;-54
2022/08/30 13:30:58;;;;;;;;;;;;;;;;;;5032755;28;20505;-54
2022/08/30 13:33:24;;;;;;;;;;;742.40;2432.00;;;;;;5032597;28;19935;-54
2022/08/30 13:35:51;;;;;;;;;;;742.60;2432.00;;;;;;5032865;28;19916;-54
2022/08/30 13:38:17;;;;;;;;;;;742.60;2432.00;;;;;;5032390;28;19909;-54
2022/08/30 13:40:43;;;;;;;;;;;742.70;2432.00;;;;;;5032498;28;19915;-54
2022/08/30 13:43:08;;;;;;;;;;;742.60;2432.00;;;;;;5032626;28;20302;-54
2022/08/30 13:45:34;;;;;;;;;;;742.80;2432.00;;;;;;5032188;28;19913;-54
2022/08/30 13:47:59;;;;;;;;;;;742.90;2432.00;;;;;;5032505;28;20023;-56
2022/08/30 13:50:25;;;;;;;;;;;742.60;2432.00;;;;;;5032113;28;20023;-55
2022/08/30 13:52:51;;;;;;;;;;;742.80;2432.00;;;;;;5032462;28;20290;-53
2022/08/30 13:55:16;;;;;;;;;;;742.90;2432.00;;;;;;5032140;28;20319;-56
2022/08/30 13:57:42;;;;;;;;;;;742.90;2432.00;;;;;;5032265;28;19913;-55
2022/08/30 14:00:10;;;;;;;;;;;742.90;2432.00;;;;;;5032180;28;20362;-54